ACT        NSW        VIC        QLD        SA        WA        TAS        NT        INFO        CALC            by VK5ZD

Past Date/Time: (dd/mm/yyyy hh:mm or blank for current data)    

  Atmospheric Gas Attenuation - ITU Rec 676-11   --------------- dB/100km ---------------
WA Stations Date Time Temp RH % AH g/m3 Dew Point Wind Direction Speed kph Gust kph Barometer mB Rainfall Since 9am 24GHz 47GHz 76GHz 122GHz 134GHz 241GHz
Albany Airport 04/05 03:30 11 98 9.81 10.7 6 7 1028 0.8 22.3 29.4 47.1 123.8 120.4 415.0
Badgingarra 04/05 03:30 11.7 72 7.53 6.8 15 20 1013.1 0 17.4 24.8 36.5 95.7 86.8 297.7
Barimunya 04/05 03:30 17.2 26 3.81 -2.4 17 26 1019.1 0 9.3 18.3 21.6 55.8 39.3 131.2
Barrow Island 04/05 03:30 25.6 83 19.76 22.5 24 30 1015.1 0 42.5 41.3 80.3 212.5 235.0 816.4
Bedout Island 04/05 03:30 26.2 40 9.85 11.5 46 54 1014.5 0 21.6 24.4 38.5 101.2 98.5 340.4
Bickley 04/05 03:30 10 81 7.61 6.9 13 22 1013.1 0 17.6 25.4 37.6 98.7 89.8 308.0
Boolgeeda 04/05 03:30 21.1 23 4.24 -0.8 20 26 1016.6 0 10.1 18.1 21.9 56.6 41.7 140.2
Bridgetown 04/05 03:30 11.5 96 9.92 10.9 2 6 1028.2 0 22.5 29.4 47.3 124.3 121.3 417.9
Broome 04/05 03:30 23.3 37 7.74 7.8 11 17 1013.7 0 17.3 22.1 32.4 84.8 77.4 266.2
Bunbury 04/05 03:30 11.7 100 10.46 11.7 9 13 1027.8 0 23.7 30.3 49.6 130.3 128.7 444.2
Busselton Airport 04/05 03:30 8.2 99 8.29 8.1 7 9 1027.8 0 19.2 27.6 42.1 110.3 102.7 352.5
Cape Leeuwin 04/05 03:30 14.4 90 11.13 12.8 20 26 1027.9 0 24.9 30.6 50.8 133.6 133.8 462.3
Cape Naturaliste 04/05 03:30 11.6 92 9.56 10.3 19 20 1027.4 0 21.7 28.7 45.7 119.8 115.9 399.1
Carnarvon 04/05 03:30 15.9 39 5.28 2 15 17 1017.2 0 12.5 20.5 26.8 69.6 55.9 189.8
Christmas Creek 04/05 03:30 16.9 23 3.31 -4.3 9 15 1019.4 0 8.3 17.8 20.1 51.8 34.2 113.4
Christmas Island 04/05 03:30 25.8 92 22.15 24.4 13 20 1010.7 0 47.6 45.7 91.5 242.4 272.0 944.8
Cocos Island 04/05 03:30 27.7 91 24.34 26.1 15 22 1011.2 0 52.0 49.1 100.3 265.7 301.1 1046.3
Collie East 04/05 03:30 7.1 98 7.65 6.8 0 0 1013.1 0 17.9 26.3 39.2 102.9 93.8 321.6
Coondewanna 04/05 03:30 15.5 25 3.3 -4.4 4 7 1019 0 8.3 18.0 20.4 52.6 34.7 114.8
Cunderdin Airport 04/05 03:30 8.7 94 8.13 7.8 9 13 1027.4 0 18.8 27.2 41.1 107.7 99.7 342.2
Curtin 04/05 03:30 24.6 29 6.53 5.4 20 30 1012 0 14.8 20.1 27.9 72.7 63.0 215.6
Dalwallinu 04/05 03:30 7.5 86 6.89 5.3 15 17 1025.5 0 16.2 25.4 36.4 95.1 83.8 286.5
Dwellingup 04/05 03:30 7.1 95 7.41 6.4 15 19 1027.7 0 17.3 26.4 38.9 101.7 91.6 313.7
Eliwana Airport 04/05 03:30 21.7 25 4.77 0.8 13 17 1013.1 0 11.2 18.5 23.2 60.3 46.6 157.7
Esperance 04/05 03:30 16.1 65 8.91 9.5 17 22 1026 0.4 20.1 26.2 40.4 106.0 100.6 346.3
Esperance Airport 04/05 03:30 13.4 89 10.35 11.6 9 13 1026.1 1 23.3 29.5 47.9 126.0 124.2 428.4
Eucla 04/05 03:30 13.8 77 9.17 9.8 13 19 1020.6 4.2 20.8 27.1 42.5 111.4 106.6 367.3
Fitzroy Crossing 04/05 03:30 21.5 47 8.86 9.7 1013 0 19.8 24.1 37.1 97.3 92.3 318.1
Forrest 04/05 03:30 12 90 9.59 10.4 17 20 1021.6 0 21.8 28.4 45.3 118.9 115.1 396.7
Fortescue Dave Forrest 04/05 03:30 15.7 27 3.61 -3.2 11 17 1019 0 9.0 18.4 21.4 55.1 37.9 126.1
Garden Island 04/05 03:30 13.5 81 9.47 10.3 15 20 1027.2 0 21.4 28.0 44.2 115.9 111.8 385.0
Geraldton Airport 04/05 03:30 14.2 65 7.94 7.7 22 32 1022.7 0 18.2 25.1 37.4 97.9 90.0 309.2
Gerangamete (Cfa) 04/05 05:20 7.5 91 7.29 6.2 6 7 1013.1 14.6 17.1 25.6 37.5 98.3 88.4 302.6
Giles* 04/05 05:00 8.3 53 4.47 -0.7 13 15 1020.4 0 11.0 21.2 26.5 68.7 51.7 174.0
Gingin Airport 04/05 03:30 6 96 6.97 5.4 6 9 1026.7 0 16.4 26.0 37.5 98.0 86.7 296.2
Golden Grove 04/05 03:30 10 74 6.96 5.6 13 15 1023.9 0 16.2 24.7 35.5 92.7 82.0 280.4
Gooseberry Hill 04/05 03:30 12.5 73 8.03 7.8 28 35 1013.1 0 18.4 25.3 38.1 100.0 92.5 317.6
Gudai-Darri Mine 04/05 03:30 18.6 24 3.82 -2.3 20 30 1013.1 0 9.3 17.9 21.1 54.5 38.5 128.7
Halls Creek 04/05 05:00 22.7 43 8.69 9.5 19 22 1012.8 0 19.4 23.6 35.9 94.3 88.9 306.4
Hopetoun North 04/05 03:30 15.7 69 9.23 10 11 17 1026.5 0.2 20.8 26.9 42.0 110.0 105.4 363.0
Iron Bridge Mine 04/05 03:30 22.7 17 3.43 -3.6 19 26 1016.9 0 8.4 16.8 19.1 49.1 33.0 109.7
Jacup 04/05 03:30 12 98 10.45 11.7 6 9 1027.3 1.2 23.6 30.2 49.3 129.6 128.0 441.7
Jandakot 04/05 03:30 8.2 90 7.54 6.7 6 7 1027.1 0 17.6 26.3 38.8 101.6 92.1 315.4
Kalgoorlie-Boulder 04/05 03:30 7.4 95 7.56 6.7 9 11 1025.9 0 17.6 26.5 39.3 102.8 93.2 319.3
Kalumburu 04/05 05:00 22.3 98 19.35 22 0 0 1011.6 0 42.0 42.0 81.6 216.0 238.5 828.0
Karijini North 04/05 03:30 19.9 18 3.09 -5.1 24 35 1018.2 0 7.8 16.9 18.7 48.1 30.8 101.6
Karratha 04/05 03:30 23.4 41 8.62 9.4 17 22 1015.8 0 19.2 23.4 35.5 93.1 87.5 301.6
Katanning Rs 04/05 03:30 8.4 98 8.32 8.1 4 6 1028 0.2 19.2 27.6 42.1 110.3 102.8 353.1
Koolan Island / Koolan Central 04/05 03:30 27.8 42 11.3 13.7 28 35 1013.1 0 24.5 26.0 42.9 112.9 113.4 392.7
Kununurra Airport 04/05 05:00 22.8 93 18.9 21.6 0 0 1011.5 0 41.0 40.8 78.9 208.7 229.7 797.4
Lake Grace 04/05 03:30 8.4 98 8.32 8.1 0 0 1027.4 0.2 19.2 27.6 42.1 110.3 102.8 352.9
Lancelin (Defence) 04/05 03:30 12.2 83 8.96 9.4 11 19 1025.5 0 20.4 27.4 42.7 111.9 106.4 366.2
Laverton 04/05 03:30 8.2 100 8.38 8.2 0 4 1024.3 0 19.4 27.6 42.3 110.9 103.7 356.0
Learmonth 04/05 03:30 21.3 88 16.4 19.2 6 9 1015.7 0 35.8 36.9 68.7 181.5 195.6 678.8
Legendre Island 04/05 03:30 26 64 15.58 18.7 22 37 1015.4 0 33.6 33.5 61.1 161.3 172.2 598.0
Leinster 04/05 03:30 9.1 78 6.92 5.5 9 9 1023 0 16.2 24.9 35.7 93.3 82.3 281.5
Leonora Airport 04/05 03:30 8 81 6.7 4.9 7 9 1024.7 0 15.8 24.9 35.4 92.4 80.7 275.5
Lombadina 04/05 03:30 25.5 39 9.23 10.5 15 24 1012.3 0 20.4 23.6 36.6 96.0 92.0 317.5
Mandora 04/05 03:30 22.8 18 3.66 -2.7 17 28 1015.2 0 8.9 17.0 19.7 50.7 35.1 117.2
Mandurah 04/05 03:30 12.5 80 8.8 9.1 9 11 1027.2 0 20.1 27.1 41.9 109.9 104.0 357.6
Manjimup 04/05 03:30 9.2 99 8.84 9.1 6 9 1028 0.2 20.3 28.3 43.9 115.2 109.2 375.3
Marble Bar 04/05 03:30 20.7 18 3.24 -4.4 9 13 1017.6 0 8.1 16.9 19.0 48.8 31.9 105.8
Mardie 04/05 03:30 21.2 61 11.3 13.4 11 13 1015.8 0 24.9 28.1 46.7 122.9 123.6 427.5
Meekatharra 04/05 03:30 12.1 51 5.47 2.3 19 26 1021.9 0 13.0 21.8 28.9 75.1 61.2 207.7
Millendon (Swan Valley) 04/05 03:30 6.5 95 7.13 5.8 0 6 1026.7 0 16.8 26.1 37.9 99.2 88.3 302.1
Morawa Airport 04/05 03:30 10.4 78 7.52 6.7 9 11 1024.4 0 17.4 25.5 37.6 98.3 89.0 305.1
Mount Keith 04/05 03:30 8.8 73 6.36 4.2 7 9 1023.5 0 15.0 24.1 33.6 87.7 75.3 256.7
Mount Magnet Airport 04/05 03:30 10 72 6.77 5.2 9 9 1023.2 0 15.8 24.4 34.7 90.6 79.4 271.5
Munglinup West 04/05 03:30 12.5 96 10.56 11.9 4 6 1026.7 0.4 23.8 30.2 49.5 130.0 128.7 444.3
Newdegate 04/05 03:30 11.2 90 9.12 9.6 7 9 1027 0.2 20.8 28.1 44.0 115.3 110.2 379.2
Newman Airport 04/05 03:30 13.7 33 3.91 -2.3 7 9 1019.9 0 9.7 19.2 22.9 59.1 42.1 140.8
Norseman Airport 04/05 03:30 11.1 97 9.77 10.6 0 0 1026.3 0.4 22.2 29.2 46.8 122.9 119.5 411.9
North Island 04/05 03:30 19.1 66 10.82 12.6 33 43 1021.9 0 24.0 28.2 46.3 121.7 121.1 418.7
Onslow Airport 04/05 03:30 23 84 17.26 20.1 15 19 1016.4 0 37.4 37.8 71.2 188.1 204.3 709.2
Paraburdoo 04/05 03:30 19.9 22 3.78 -2.4 17 20 1017.2 0 9.2 17.7 20.8 53.6 37.6 125.8
Pearce 04/05 03:30 5.9 85 6.13 3.6 6 7 1026.5 0 14.6 24.6 34.0 88.8 75.2 256.1
Perth 04/05 03:30 7.9 99 8.14 7.8 0 0 1026.9 0 18.9 27.4 41.5 108.8 100.9 346.1
Perth Airport 04/05 03:30 7.8 90 7.35 6.3 9 11 1026.8 0 17.2 26.1 38.2 100.0 89.9 307.7
Port Hedland 04/05 03:30 23.1 20 4.13 -1.1 19 26 1015.6 0 9.9 17.5 21.0 54.3 39.6 133.0
Portable Btsa (Dfes) 04/05 03:20 16.6 37 5.23 2 9 13 1013.1 0 12.3 20.2 26.2 68.2 54.7 185.6
Portable Btsb (Dfes) 04/05 03:20 9.6 82 7.51 6.7 6 6 1013.1 0 17.4 25.3 37.4 98.1 88.9 304.8
Portable Btsd (Dfes) 04/05 03:20 6.3 94 6.96 5.4 9 11 1013.1 0 16.4 25.3 36.7 96.1 85.2 291.3
Portable Btsf (Dfes) 04/05 02:00 11.4 53 5.44 2.3 15 17 1013.1 0 13.0 21.6 28.7 74.8 60.9 206.6
Portable Btsh (Dfes) 04/05 03:20 11.3 100 10.2 11.3 6 6 1013.1 0.4 23.2 29.4 47.9 126.1 124.2 428.2
Portable Btsj (Dfes) 04/05 03:20 7.1 93 7.26 6 0 0 1013.1 0 17.0 25.6 37.6 98.5 88.4 302.7
Portable Btsk (Dfes) 04/05 03:20 16.5 56 7.86 7.8 2 2 1013.1 0 17.9 24.0 35.6 93.4 85.7 294.5
Portable Btsl (Dfes) 04/05 03:20 12.6 94 10.4 11.6 9 13 1013.1 0 23.5 29.3 48.0 126.3 124.9 431.0
Portable Btsm (Dfes) 04/05 03:20 12.3 41 4.45 -0.5 2 2 1013.1 0 10.8 20.0 24.9 64.6 48.6 163.7
Portable Btsn (Dfes) 04/05 03:20 11.5 63 6.51 4.8 7 9 1013.1 0 15.2 23.2 32.6 85.3 74.0 252.6
Portable Btso (Dfes) 04/05 03:20 9.5 96 8.74 8.9 4 6 1013.1 0 20.1 27.4 42.6 111.9 106.0 364.5
Red Rocks Point 04/05 03:30 16.4 64 8.93 9.6 28 35 1021.5 2.4 20.2 26.0 40.2 105.4 100.1 344.6
Rocky Gully South 04/05 03:30 11.6 96 9.98 11 0 4 1013.1 0.4 22.7 28.9 46.8 123.0 120.5 415.5
Roebourne Airport 04/05 03:30 20.6 42 7.52 7.2 17 20 1016.5 0 17.0 22.6 32.8 85.9 77.7 266.8
Rottnest Island 04/05 03:30 15.2 69 8.96 9.6 13 19 1026.4 0 20.3 26.6 41.1 107.8 102.4 352.7
Salmon Gums Rs 04/05 03:30 12.1 99 10.62 11.9 7 11 1013.1 0.4 24.0 29.9 49.3 129.7 128.9 444.9
Shannon 04/05 03:30 9.3 100 8.99 9.3 0 0 1013.1 0.2 20.7 27.9 43.8 115.1 109.8 377.9
Shark Bay Airport 04/05 03:30 18.8 45 7.25 6.6 22 32 1018.2 0 16.5 22.7 32.6 85.3 76.4 261.9
Solomon Airport 04/05 03:30 19.8 20 3.42 -3.8 13 20 1017 0 8.5 17.3 19.7 50.8 34.1 113.2
Southern Cross Airport 04/05 03:30 6.2 97 7.14 5.8 0 0 1026.8 0 16.8 26.2 38.1 99.7 88.8 303.8
Swanbourne 04/05 03:30 11.3 97 9.9 10.8 9 13 1013.1 0 22.5 28.9 46.6 122.6 119.8 413.1
Telfer 04/05 03:30 16.5 29 4.07 -1.6 24 32 1017.9 0 9.9 18.8 22.6 58.4 42.3 141.9
Thevenard Island 04/05 03:30 24.9 82 18.77 21.6 22 26 1016 0 40.5 39.8 76.4 202.0 221.9 770.9
Troughton Island 04/05 05:00 26.8 86 21.89 24.3 11 13 1011.7 0 46.9 44.7 89.1 235.9 264.3 918.2
Truscott 04/05 05:00 23.6 99 21.05 23.4 0 0 1011.1 0 45.5 44.7 88.7 234.7 261.8 909.4
Walpole North 04/05 03:30 11.7 99 10.36 11.5 0 0 1027.7 3.2 23.5 30.1 49.1 129.1 127.3 439.0
Wandering 04/05 03:30 3.4 94 5.75 2.5 2 6 1013.1 0 13.9 24.1 33.0 86.1 71.6 243.2
West Angelas 04/05 03:30 14.5 28 3.48 -3.8 9 11 1018 0 8.7 18.4 21.2 54.7 37.0 122.9
West Musgrave Airport 04/05 03:30 7.6 62 5 0.8 11 13 1013.1 0 12.1 21.9 28.4 73.9 58.4 197.2
Wiluna Airport 04/05 03:30 9.1 62 5.5 2.2 11 13 1023 0 13.2 22.6 30.1 78.4 64.0 217.1
Witchcliffe West 04/05 03:30 10.8 100 9.89 10.8 13 17 1027.8 0 22.5 29.6 47.6 125.0 121.9 420.1
Wyndham Airport 04/05 05:00 24.2 84 18.48 21.3 2 6 1011 0 39.9 39.3 75.4 199.4 218.8 759.8
Yampi Sound (Defence) 04/05 03:30 20.1 77 13.38 15.9 0 0 1013.1 0 29.4 31.9 55.9 147.5 153.7 532.4

Last Refresh: 04-May-2026 05:03:35

Bureau of Meteorology